Time;durP1;ratioP1;P1;durP2;ratioP2;P2;SDS_P1;SDS_P2;PMS_P1;PMS_P2;Temp;Humidity;BMP_temperature;BMP_pressure;BME280_temperature;BME280_humidity;BME280_pressure;Samples;Min_cycle;Max_cycle;Signal;HPM_P1;HPM_P2
2024/01/01 00:01:22;;;;;;;90.90;53.20;;;5.00;92.60;;;;;;5104765;27;20226;-68
2024/01/01 00:03:50;;;;;;;87.53;51.80;;;4.90;92.40;;;;;;5114266;27;20234;-69
2024/01/01 00:06:20;;;;;;;86.10;50.13;;;5.00;91.90;;;;;;5114344;27;20236;-69
2024/01/01 00:08:49;;;;;;;89.17;51.43;;;5.10;91.80;;;;;;5119950;27;20945;-70
2024/01/01 00:11:17;;;;;;;82.67;47.47;;;5.30;91.20;;;;;;5106968;27;20230;-67
2024/01/01 00:13:46;;;;;;;77.63;47.53;;;5.20;91.00;;;;;;5117658;27;20246;-69
2024/01/01 00:16:15;;;;;;;83.50;47.43;;;5.30;90.40;;;;;;5100720;27;20298;-69
2024/01/01 00:18:44;;;;;;;82.43;47.37;;;5.00;90.50;;;;;;5118152;27;20233;-69
2024/01/01 00:21:12;;;;;;;78.40;46.80;;;4.90;90.70;;;;;;5103381;27;20788;-70
2024/01/01 00:23:42;;;;;;;75.53;45.23;;;5.00;91.00;;;;;;5118068;27;20594;-69
2024/01/01 00:26:11;;;;;;;74.03;44.43;;;5.00;91.00;;;;;;5121248;27;20231;-68
2024/01/01 00:28:40;;;;;;;76.13;45.50;;;5.00;91.00;;;;;;5107726;27;20218;-69
2024/01/01 00:31:08;;;;;;;73.73;44.00;;;5.10;95.80;;;;;;5117413;27;20332;-69
2024/01/01 00:33:37;;;;;;;71.23;42.33;;;5.00;90.30;;;;;;5107396;27;20245;-69
2024/01/01 00:36:06;;;;;;;75.53;43.37;;;4.90;90.30;;;;;;5100131;27;20226;-68
2024/01/01 00:38:34;;;;;;;72.37;42.23;;;5.00;90.40;;;;;;5105118;27;20313;-69
2024/01/01 00:41:04;;;;;;;72.13;41.03;;;4.90;90.30;;;;;;5121560;27;20593;-69
2024/01/01 00:43:34;;;;;;;67.17;41.07;;;5.00;89.70;;;;;;5103414;27;20805;-69
2024/01/01 00:46:03;;;;;;;63.03;39.37;;;5.00;88.30;;;;;;5103011;27;20227;-69
2024/01/01 00:48:32;;;;;;;67.33;40.63;;;5.00;89.20;;;;;;5118757;27;20241;-69
2024/01/01 00:51:01;;;;;;;66.23;38.90;;;5.10;88.30;;;;;;5123027;27;20221;-69
2024/01/01 00:53:29;;;;;;;61.27;37.73;;;5.10;88.40;;;;;;5117083;27;20268;-69
2024/01/01 00:55:58;;;;;;;66.60;39.03;;;5.00;88.50;;;;;;5095120;27;20218;-68
2024/01/01 00:58:28;;;;;;;63.37;38.20;;;5.00;88.20;;;;;;5097889;27;21125;-69
2024/01/01 01:00:57;;;;;;;64.17;37.83;;;4.90;88.30;;;;;;5107902;27;20720;-68
2024/01/01 01:03:25;;;;;;;63.33;37.80;;;4.90;88.10;;;;;;5105326;27;20242;-69
2024/01/01 01:05:54;;;;;;;60.13;37.93;;;5.10;88.60;;;;;;5124659;27;20657;-69
2024/01/01 01:08:27;;;;;;;63.30;38.03;;;5.00;88.00;;;;;;5105758;27;20562;-69
2024/01/01 01:10:56;;;;;;;65.23;38.67;;;4.90;87.90;;;;;;5105168;27;20233;-69
2024/01/01 01:13:28;;;;;;;63.10;37.63;;;4.90;88.00;;;;;;5107167;27;20229;-70
2024/01/01 01:15:57;;;;;;;65.30;37.07;;;5.00;88.00;;;;;;5122840;27;20651;-68
2024/01/01 01:18:25;;;;;;;61.67;35.33;;;5.00;87.90;;;;;;5119117;27;20237;-69
2024/01/01 01:20:54;;;;;;;57.13;35.90;;;5.10;88.00;;;;;;5118750;27;20234;-69
2024/01/01 01:23:22;;;;;;;60.07;35.83;;;5.10;88.00;;;;;;5126769;27;20214;-70
2024/01/01 01:25:51;;;;;;;65.40;35.70;;;5.10;88.10;;;;;;5098225;27;20251;-70
2024/01/01 01:28:22;;;;;;;62.60;34.73;;;5.20;88.00;;;;;;5119502;27;20756;-69
2024/01/01 01:30:52;;;;;;;55.70;33.20;;;5.30;88.40;;;;;;5103396;27;20242;-70
2024/01/01 01:33:21;;;;;;;50.90;31.63;;;5.20;88.00;;;;;;5118503;27;20218;-68
2024/01/01 01:35:50;;;;;;;57.67;33.60;;;5.20;88.10;;;;;;5106005;27;21110;-69
2024/01/01 01:38:18;;;;;;;55.93;32.87;;;5.20;87.90;;;;;;5103066;27;20229;-68
2024/01/01 01:40:47;;;;;;;52.03;31.63;;;5.20;87.80;;;;;;5106743;27;20321;-66
2024/01/01 01:43:21;;;;;;;54.67;32.67;;;5.30;86.50;;;;;;5106422;27;20248;-69
2024/01/01 01:45:53;;;;;;;53.37;31.50;;;5.30;88.30;;;;;;5123875;27;20573;-69
2024/01/01 01:48:22;;;;;;;52.97;31.93;;;5.30;87.60;;;;;;5106279;27;20233;-68
2024/01/01 01:50:51;;;;;;;51.57;31.60;;;5.30;87.50;;;;;;5119051;27;20231;-68
2024/01/01 01:53:23;;;;;;;50.00;30.43;;;5.20;87.60;;;;;;5122220;27;20218;-67
2024/01/01 01:55:56;;;;;;;57.43;32.17;;;5.30;86.70;;;;;;5095728;27;20692;-68
2024/01/01 01:58:25;;;;;;;54.43;32.07;;;5.40;85.80;;;;;;5102391;27;20634;-68
2024/01/01 02:00:55;;;;;;;52.30;31.13;;;5.30;85.90;;;;;;5104186;27;20274;-69
2024/01/01 02:03:24;;;;;;;50.83;30.20;;;5.30;85.40;;;;;;5110492;27;20417;-67
2024/01/01 02:05:54;;;;;;;55.27;31.80;;;5.30;86.10;;;;;;5121658;27;20653;-68
2024/01/01 02:08:24;;;;;;;51.97;31.83;;;5.20;86.90;;;;;;5101383;27;20341;-68
2024/01/01 02:10:53;;;;;;;52.13;29.93;;;5.20;86.80;;;;;;5117352;27;20230;-68
2024/01/01 02:13:26;;;;;;;54.03;31.13;;;5.30;85.50;;;;;;5107041;27;20318;-68
2024/01/01 02:15:56;;;;;;;52.57;30.80;;;5.30;85.10;;;;;;5115884;27;20215;-68
2024/01/01 02:18:25;;;;;;;49.03;30.07;;;5.20;84.30;;;;;;5109100;27;20230;-68
2024/01/01 02:20:56;;;;;;;50.23;29.00;;;5.30;85.70;;;;;;5119347;27;20234;-68
2024/01/01 02:23:26;;;;;;;53.30;29.70;;;5.20;84.70;;;;;;5105694;27;20255;-68
2024/01/01 02:25:55;;;;;;;50.73;29.97;;;5.10;85.00;;;;;;5122017;27;20793;-68
2024/01/01 02:28:24;;;;;;;47.83;29.50;;;5.30;84.90;;;;;;5124284;27;20320;-68
2024/01/01 02:30:52;;;;;;;47.17;28.73;;;5.30;84.80;;;;;;5097061;27;20241;-67
2024/01/01 02:33:21;;;;;;;47.57;28.47;;;5.10;86.00;;;;;;5122264;27;20766;-67
2024/01/01 02:35:50;;;;;;;45.97;28.23;;;5.00;86.00;;;;;;5098858;27;20866;-68
2024/01/01 02:38:18;;;;;;;46.43;27.53;;;5.10;87.10;;;;;;5126461;27;20215;-67
2024/01/01 02:40:48;;;;;;;50.03;28.20;;;5.10;86.20;;;;;;5121456;27;20643;-69
2024/01/01 02:43:17;;;;;;;48.03;27.30;;;5.00;87.10;;;;;;5106849;27;20211;-68
2024/01/01 02:45:45;;;;;;;44.33;28.00;;;5.10;86.20;;;;;;5119429;27;20570;-68
2024/01/01 02:48:14;;;;;;;48.43;27.07;;;5.20;85.90;;;;;;5102306;27;20880;-67
2024/01/01 02:50:42;;;;;;;49.83;27.97;;;5.30;84.30;;;;;;5115269;27;20218;-68
2024/01/01 02:53:11;;;;;;;47.60;28.37;;;5.20;83.50;;;;;;5119358;27;20218;-67
2024/01/01 02:55:39;;;;;;;48.50;27.77;;;5.30;82.80;;;;;;5101606;27;20296;-68
2024/01/01 02:58:09;;;;;;;46.60;27.77;;;5.20;83.60;;;;;;5101084;27;20841;-68
2024/01/01 03:00:37;;;;;;;45.00;27.10;;;5.20;82.10;;;;;;5121667;27;21031;-68
2024/01/01 03:03:06;;;;;;;48.07;27.47;;;5.20;82.80;;;;;;5119255;27;20244;-68
2024/01/01 03:05:34;;;;;;;45.47;27.07;;;5.10;82.80;;;;;;5121192;27;20786;-68
2024/01/01 03:08:03;;;;;;;44.47;27.53;;;5.10;84.10;;;;;;5114785;27;20221;-68
2024/01/01 03:10:32;;;;;;;47.83;27.47;;;5.20;84.20;;;;;;5102126;27;20218;-68
2024/01/01 03:13:00;;;;;;;46.77;26.53;;;5.20;83.10;;;;;;5115110;27;20293;-67
2024/01/01 03:15:30;;;;;;;50.43;28.40;;;5.10;84.00;;;;;;5104495;27;20218;-68
2024/01/01 03:17:59;;;;;;;45.30;26.30;;;5.10;82.60;;;;;;5121984;27;20225;-68
2024/01/01 03:20:31;;;;;;;43.73;26.30;;;5.10;83.00;;;;;;5102461;27;20241;-68
2024/01/01 03:22:59;;;;;;;46.33;28.17;;;5.00;83.00;;;;;;5106832;27;20473;-68
2024/01/01 03:25:28;;;;;;;49.40;28.03;;;5.00;84.00;;;;;;5101032;27;21524;-68
2024/01/01 03:27:56;;;;;;;47.77;26.57;;;5.10;82.90;;;;;;5099959;27;20246;-68
2024/01/01 03:30:25;;;;;;;44.60;27.03;;;5.20;82.30;;;;;;5093576;28;20246;-68
2024/01/01 03:32:55;;;;;;;44.27;26.13;;;5.30;83.20;;;;;;5117851;27;20276;-67
2024/01/01 03:35:23;;;;;;;42.43;26.67;;;5.20;81.50;;;;;;5096289;28;20303;-69
2024/01/01 03:37:51;;;;;;;41.87;27.03;;;5.20;82.00;;;;;;5117141;28;20227;-68
2024/01/01 03:40:20;;;;;;;45.87;27.43;;;5.20;81.70;;;;;;5096055;28;20521;-69
2024/01/01 03:42:48;;;;;;;44.70;28.07;;;5.30;81.40;;;;;;5114263;28;20230;-68
2024/01/01 03:45:18;;;;;;;51.57;28.90;;;5.20;81.90;;;;;;5102008;28;20716;-69
2024/01/01 03:47:46;;;;;;;44.37;27.43;;;5.10;82.10;;;;;;5097769;27;20237;-68
2024/01/01 03:50:19;;;;;;;45.70;28.07;;;5.20;81.70;;;;;;5122891;28;20226;-69
2024/01/01 03:52:48;;;;;;;44.70;27.80;;;5.20;80.80;;;;;;5123844;28;20323;-68
2024/01/01 03:55:17;;;;;;;46.37;28.07;;;5.20;81.50;;;;;;5116747;27;20226;-68
2024/01/01 03:57:47;;;;;;;45.13;27.47;;;5.30;80.90;;;;;;5119907;27;20236;-69
2024/01/01 04:00:16;;;;;;;48.77;28.50;;;5.30;80.50;;;;;;5102462;28;20781;-68
2024/01/01 04:02:46;;;;;;;50.23;29.37;;;5.30;80.60;;;;;;5092664;28;20555;-67
2024/01/01 04:05:16;;;;;;;44.90;27.83;;;5.40;79.60;;;;;;5102877;28;20329;-67
2024/01/01 04:07:45;;;;;;;48.10;28.70;;;5.30;80.40;;;;;;5113719;28;20222;-68
2024/01/01 04:10:13;;;;;;;43.53;27.70;;;5.30;80.70;;;;;;5120215;28;20229;-67
2024/01/01 04:12:41;;;;;;;49.57;28.43;;;5.30;80.40;;;;;;5107209;28;20676;-68
2024/01/01 04:15:10;;;;;;;48.70;27.83;;;5.20;80.70;;;;;;5120028;28;20310;-68
2024/01/01 04:17:39;;;;;;;46.80;27.80;;;5.20;80.30;;;;;;5116906;28;20226;-68
2024/01/01 04:20:10;;;;;;;48.37;29.00;;;5.30;80.80;;;;;;5101326;28;20304;-68
2024/01/01 04:22:41;;;;;;;48.17;28.10;;;5.20;80.00;;;;;;5095674;28;20219;-68
2024/01/01 04:25:10;;;;;;;50.83;28.67;;;5.20;80.60;;;;;;5097958;28;20222;-67
2024/01/01 04:27:39;;;;;;;47.83;28.63;;;5.20;80.50;;;;;;5099030;28;20230;-68
2024/01/01 04:30:08;;;;;;;43.63;28.23;;;5.20;80.60;;;;;;5110370;28;20230;-68
2024/01/01 04:32:37;;;;;;;44.07;26.80;;;5.30;80.00;;;;;;5100409;28;20222;-68
2024/01/01 04:35:06;;;;;;;46.50;27.33;;;5.40;78.70;;;;;;5098225;28;20237;-68
2024/01/01 04:37:34;;;;;;;48.33;27.70;;;5.30;79.70;;;;;;5099312;28;20222;-68
2024/01/01 04:40:06;;;;;;;48.50;27.83;;;5.20;80.50;;;;;;5116423;28;20214;-68
2024/01/01 04:42:34;;;;;;;45.93;27.83;;;5.30;79.90;;;;;;5114761;28;20785;-68
2024/01/01 04:45:03;;;;;;;48.40;28.20;;;5.40;79.00;;;;;;5111781;28;20709;-67
2024/01/01 04:47:31;;;;;;;46.67;27.77;;;5.30;79.20;;;;;;5118630;27;20700;-68
2024/01/01 04:49:59;;;;;;;48.83;28.07;;;5.30;79.00;;;;;;5124218;27;20222;-68
2024/01/01 04:52:28;;;;;;;43.97;27.87;;;5.20;79.90;;;;;;5125214;27;20317;-68
2024/01/01 04:54:57;;;;;;;43.63;27.33;;;5.30;79.70;;;;;;5117088;27;20225;-69
2024/01/01 04:57:27;;;;;;;48.07;27.13;;;5.30;79.40;;;;;;5121970;27;20215;-69
2024/01/01 04:59:56;;;;;;;48.50;29.10;;;5.40;78.70;;;;;;5103585;27;20255;-69
2024/01/01 05:02:25;;;;;;;51.17;27.97;;;5.40;78.00;;;;;;5120231;27;20253;-69
2024/01/01 05:04:53;;;;;;;44.63;26.70;;;5.40;78.30;;;;;;5095656;27;20226;-68
2024/01/01 05:07:21;;;;;;;45.90;28.27;;;5.50;77.80;;;;;;5099186;27;20275;-68
2024/01/01 05:09:50;;;;;;;45.93;28.60;;;5.50;77.00;;;;;;5119884;27;20252;-68
2024/01/01 05:12:19;;;;;;;47.53;29.10;;;5.50;85.90;;;;;;5107501;27;20984;-68
2024/01/01 05:14:49;;;;;;;42.83;26.53;;;5.40;77.10;;;;;;5102293;27;20798;-68
2024/01/01 05:17:17;;;;;;;47.43;28.27;;;5.50;77.00;;;;;;5125241;27;20253;-68
2024/01/01 05:19:50;;;;;;;47.83;29.17;;;5.50;77.20;;;;;;5103857;27;20250;-68
2024/01/01 05:22:19;;;;;;;49.60;28.53;;;5.50;76.60;;;;;;5097496;28;20233;-68
2024/01/01 05:24:48;;;;;;;45.33;28.60;;;5.40;77.40;;;;;;5086165;28;20238;-68
2024/01/01 05:27:16;;;;;;;44.57;27.90;;;5.50;77.20;;;;;;5091268;28;20230;-68
2024/01/01 05:29:45;;;;;;;48.00;29.13;;;5.50;77.20;;;;;;5100449;28;20953;-68
2024/01/01 05:32:14;;;;;;;46.63;28.97;;;5.50;77.10;;;;;;5090437;27;21166;-68
2024/01/01 05:34:44;;;;;;;48.30;29.37;;;5.40;77.30;;;;;;5083506;28;20316;-68
2024/01/01 05:37:12;;;;;;;44.37;28.73;;;5.40;77.70;;;;;;5084399;28;20223;-70
2024/01/01 05:39:41;;;;;;;49.53;28.47;;;5.40;77.80;;;;;;5086159;28;20211;-69
2024/01/01 05:42:09;;;;;;;52.20;28.77;;;5.40;77.30;;;;;;5101983;28;20725;-69
2024/01/01 05:44:37;;;;;;;47.13;28.20;;;5.40;77.90;;;;;;5094055;28;20482;-69
2024/01/01 05:47:06;;;;;;;49.73;30.10;;;5.40;77.40;;;;;;5093645;28;20231;-69
2024/01/01 05:49:36;;;;;;;50.80;28.90;;;5.50;77.30;;;;;;5099162;27;20385;-70
2024/01/01 05:52:05;;;;;;;54.73;30.27;;;5.50;76.20;;;;;;5104365;28;20235;-70
2024/01/01 05:54:34;;;;;;;48.60;29.43;;;5.50;76.70;;;;;;5082971;28;20239;-69
2024/01/01 05:57:02;;;;;;;53.30;30.37;;;5.60;76.50;;;;;;5103818;28;20736;-69
2024/01/01 05:59:31;;;;;;;50.27;29.63;;;5.50;75.90;;;;;;5076584;28;20211;-69
2024/01/01 06:01:59;;;;;;;51.20;30.00;;;5.40;77.00;;;;;;5097039;28;20241;-69
2024/01/01 06:04:28;;;;;;;52.47;31.33;;;5.50;76.80;;;;;;5101283;27;20729;-69
2024/01/01 06:06:58;;;;;;;47.87;29.13;;;5.50;77.30;;;;;;5082379;28;20222;-69
2024/01/01 06:09:26;;;;;;;52.93;30.40;;;5.60;76.40;;;;;;5093514;28;20219;-69
2024/01/01 06:11:55;;;;;;;49.20;29.60;;;5.50;76.10;;;;;;5086854;28;20222;-69
2024/01/01 06:14:23;;;;;;;59.17;32.37;;;5.60;75.80;;;;;;5096020;28;20742;-69
2024/01/01 06:16:51;;;;;;;52.23;30.23;;;5.50;75.60;;;;;;5080768;28;20215;-68
2024/01/01 06:19:20;;;;;;;55.63;31.13;;;5.50;76.70;;;;;;5097838;28;20250;-69
2024/01/01 06:21:49;;;;;;;56.90;30.43;;;5.50;76.50;;;;;;5109385;27;20440;-69
2024/01/01 06:24:19;;;;;;;52.73;30.27;;;5.60;76.60;;;;;;5098022;28;20222;-69
2024/01/01 06:26:47;;;;;;;55.70;31.60;;;5.50;75.90;;;;;;5090051;28;20239;-69
2024/01/01 06:29:16;;;;;;;55.33;31.47;;;5.50;76.50;;;;;;5089019;28;20754;-69
2024/01/01 06:31:44;;;;;;;54.20;31.37;;;5.60;74.70;;;;;;5085708;28;21789;-69
2024/01/01 06:34:13;;;;;;;60.17;32.17;;;5.50;75.20;;;;;;5081392;28;20229;-69
2024/01/01 06:36:41;;;;;;;54.70;30.77;;;5.50;75.40;;;;;;5099823;27;20218;-69
2024/01/01 06:39:10;;;;;;;54.87;31.40;;;5.50;75.80;;;;;;5100283;28;20313;-69
2024/01/01 06:41:39;;;;;;;59.47;32.63;;;5.50;75.70;;;;;;5076593;28;20224;-69
2024/01/01 06:44:08;;;;;;;58.50;31.97;;;5.60;75.20;;;;;;5098376;28;20235;-69
2024/01/01 06:46:36;;;;;;;63.13;32.83;;;5.60;74.80;;;;;;5111115;27;20243;-69
2024/01/01 06:49:05;;;;;;;58.53;33.40;;;5.60;75.60;;;;;;5084817;28;21031;-69
2024/01/01 06:51:34;;;;;;;62.03;34.10;;;5.60;75.70;;;;;;5097088;27;20220;-69
2024/01/01 06:54:02;;;;;;;63.63;33.97;;;5.50;75.60;;;;;;5079948;27;20237;-69
2024/01/01 06:56:30;;;;;;;74.30;36.13;;;5.50;76.00;;;;;;5086518;28;20211;-69
2024/01/01 06:59:01;;;;;;;69.63;37.07;;;5.50;76.20;;;;;;5095977;28;20239;-70
2024/01/01 07:01:29;;;;;;;71.93;36.90;;;5.50;76.90;;;;;;5080454;28;20594;-70
2024/01/01 07:03:58;;;;;;;60.33;33.53;;;5.50;76.70;;;;;;5097184;28;20295;-67
2024/01/01 07:06:27;;;;;;;61.47;34.37;;;5.50;75.50;;;;;;5086605;27;20255;-67
2024/01/01 07:08:55;;;;;;;62.93;33.43;;;5.50;75.80;;;;;;5089356;27;20219;-68
2024/01/01 07:11:23;;;;;;;60.97;32.63;;;5.50;76.90;;;;;;5113768;27;20215;-67
2024/01/01 07:13:52;;;;;;;62.47;33.67;;;5.50;76.40;;;;;;5096221;28;20845;-68
2024/01/01 07:16:22;;;;;;;66.20;33.73;;;5.60;75.50;;;;;;5093805;28;20224;-68
2024/01/01 07:18:50;;;;;;;69.87;33.43;;;5.50;75.30;;;;;;5066115;28;20336;-68
2024/01/01 07:21:19;;;;;;;67.87;33.67;;;5.50;75.40;;;;;;5090884;27;20618;-67
2024/01/01 07:23:47;;;;;;;66.27;33.10;;;5.50;75.10;;;;;;5094527;27;20232;-67
2024/01/01 07:26:16;;;;;;;66.63;33.30;;;5.50;75.10;;;;;;5095196;27;20222;-68
2024/01/01 07:28:45;;;;;;;67.70;34.43;;;5.50;75.00;;;;;;5088354;27;21679;-68
2024/01/01 07:31:13;;;;;;;66.57;32.67;;;5.50;75.40;;;;;;5074556;28;20308;-68
2024/01/01 07:33:47;;;;;;;69.57;34.30;;;5.60;75.80;;;;;;5087898;27;20246;-68
2024/01/01 07:36:15;;;;;;;70.93;35.20;;;5.50;75.00;;;;;;5089810;28;20211;-68
2024/01/01 07:38:44;;;;;;;68.13;34.80;;;5.40;75.20;;;;;;5096316;27;20322;-68
2024/01/01 07:41:12;;;;;;;74.80;35.50;;;5.40;75.80;;;;;;5077581;28;20240;-68
2024/01/01 07:43:41;;;;;;;73.53;34.97;;;5.40;74.90;;;;;;5077632;27;20720;-68
2024/01/01 07:46:10;;;;;;;71.57;35.77;;;5.40;75.30;;;;;;5093345;27;20220;-68
2024/01/01 07:48:39;;;;;;;76.07;34.97;;;5.40;76.80;;;;;;5072628;27;20246;-68
2024/01/01 07:51:09;;;;;;;71.73;34.23;;;5.50;74.70;;;;;;5084743;28;20713;-69
2024/01/01 07:53:37;;;;;;;83.63;35.57;;;5.50;74.70;;;;;;5083309;28;20210;-68
2024/01/01 07:56:06;;;;;;;77.63;35.47;;;5.50;74.90;;;;;;5082250;28;20862;-68
2024/01/01 07:58:35;;;;;;;78.93;35.77;;;5.50;75.00;;;;;;5082723;28;20229;-69
2024/01/01 08:01:04;;;;;;;83.63;37.00;;;5.40;76.20;;;;;;5070707;28;20703;-69
2024/01/01 08:03:32;;;;;;;78.83;36.53;;;5.40;76.00;;;;;;5081194;27;20350;-68
2024/01/01 08:06:01;;;;;;;85.13;37.60;;;5.30;75.40;;;;;;5075394;28;20210;-69
2024/01/01 08:08:31;;;;;;;85.90;38.60;;;5.40;76.10;;;;;;5076318;27;20227;-69
2024/01/01 08:11:00;;;;;;;88.67;37.07;;;5.30;76.10;;;;;;5099141;27;20239;-70
2024/01/01 08:13:29;;;;;;;80.97;36.07;;;5.30;76.20;;;;;;5077182;28;20221;-69
2024/01/01 08:15:58;;;;;;;90.03;37.80;;;5.30;77.40;;;;;;5083454;28;20320;-70
2024/01/01 08:18:26;;;;;;;83.03;36.73;;;5.40;77.00;;;;;;5091730;28;20227;-69
2024/01/01 08:20:55;;;;;;;82.70;37.97;;;5.40;76.30;;;;;;5097992;27;20222;-69
2024/01/01 08:23:50;;;;;;;90.00;37.33;;;5.40;76.40;;;;;;5113250;27;20222;-68
2024/01/01 08:26:22;;;;;;;82.37;37.07;;;5.40;76.10;;;;;;5118179;27;20234;-67
2024/01/01 08:28:52;;;;;;;92.47;39.53;;;5.50;75.60;;;;;;5097764;27;20235;-67
2024/01/01 08:31:21;;;;;;;88.83;39.47;;;5.40;75.80;;;;;;5125104;27;20657;-67
2024/01/01 08:33:50;;;;;;;90.40;38.73;;;5.40;76.60;;;;;;5120914;27;20218;-68
2024/01/01 08:36:20;;;;;;;79.70;37.43;;;5.50;74.40;;;;;;5125630;27;20804;-68
2024/01/01 08:38:50;;;;;;;81.00;37.53;;;5.60;74.80;;;;;;5116852;27;20257;-68
2024/01/01 08:41:19;;;;;;;90.57;38.17;;;5.60;74.40;;;;;;5115138;27;20218;-67
2024/01/01 08:43:56;;;;;;;85.30;38.57;;;5.50;74.80;;;;;;5124269;27;20278;-68
2024/01/01 08:46:26;;;;;;;88.57;39.13;;;5.60;74.50;;;;;;5106791;27;20219;-69
2024/01/01 08:48:55;;;;;;;82.90;37.27;;;5.60;73.60;;;;;;5109812;27;20221;-68
2024/01/01 08:51:24;;;;;;;83.60;38.27;;;5.70;73.90;;;;;;5121939;27;20228;-69
2024/01/01 08:53:55;;;;;;;80.03;37.53;;;5.70;73.80;;;;;;5122283;27;20257;-69
2024/01/01 08:56:24;;;;;;;77.67;37.50;;;5.70;74.10;;;;;;5117537;27;20225;-68
2024/01/01 08:58:52;;;;;;;73.23;34.97;;;5.70;74.40;;;;;;5101715;27;20224;-68
2024/01/01 09:01:21;;;;;;;72.40;36.63;;;5.70;73.50;;;;;;5114832;27;20320;-68
2024/01/01 09:03:50;;;;;;;81.17;37.87;;;5.60;74.50;;;;;;5116559;27;20245;-69
2024/01/01 09:06:20;;;;;;;78.87;36.37;;;5.60;75.60;;;;;;5115551;27;20236;-68
2024/01/01 09:08:48;;;;;;;74.40;36.23;;;5.60;74.90;;;;;;5104566;27;20315;-69
2024/01/01 09:11:18;;;;;;;81.30;38.47;;;5.60;74.00;;;;;;5120962;27;20225;-69
2024/01/01 09:13:47;;;;;;;68.13;34.43;;;5.60;74.50;;;;;;5103805;27;20821;-69
2024/01/01 09:16:15;;;;;;;70.93;34.73;;;5.60;73.30;;;;;;5124286;27;20217;-68
2024/01/01 09:18:44;;;;;;;68.50;35.50;;;5.70;73.70;;;;;;5104783;27;20258;-69
2024/01/01 09:21:17;;;;;;;67.37;34.87;;;5.60;73.40;;;;;;5085693;28;20796;-69
2024/01/01 09:23:46;;;;;;;68.93;35.03;;;5.50;74.90;;;;;;5078380;28;20231;-69
2024/01/01 09:26:15;;;;;;;63.73;35.27;;;5.50;76.10;;;;;;5096376;28;20227;-68
2024/01/01 09:28:45;;;;;;;67.20;35.37;;;5.60;75.00;;;;;;5077698;28;20223;-69
2024/01/01 09:31:13;;;;;;;65.20;35.07;;;5.50;75.80;;;;;;5075091;28;20215;-67
2024/01/01 09:33:41;;;;;;;65.87;34.93;;;5.50;75.60;;;;;;5101170;27;20218;-69
2024/01/01 09:36:13;;;;;;;65.17;35.50;;;5.50;74.60;;;;;;5104086;27;20227;-68
2024/01/01 09:38:42;;;;;;;61.90;34.50;;;5.50;75.70;;;;;;5076082;28;20253;-68
2024/01/01 09:41:11;;;;;;;63.03;33.87;;;5.50;75.80;;;;;;5096806;28;20254;-69
2024/01/01 09:43:42;;;;;;;68.23;35.70;;;5.40;76.50;;;;;;5091492;28;20238;-68
2024/01/01 09:46:14;;;;;;;65.50;33.97;;;5.40;76.20;;;;;;5103013;28;20223;-68
2024/01/01 09:48:42;;;;;;;59.17;32.73;;;5.40;77.00;;;;;;5104050;28;20219;-68
2024/01/01 09:51:11;;;;;;;67.80;34.50;;;5.30;77.00;;;;;;5094009;28;20318;-68
2024/01/01 09:53:40;;;;;;;58.83;32.63;;;5.50;78.10;;;;;;5083723;28;20264;-68
2024/01/01 09:56:08;;;;;;;63.50;34.13;;;5.50;75.30;;;;;;5085912;28;20309;-69
2024/01/01 09:58:43;;;;;;;63.30;33.97;;;5.40;76.00;;;;;;5083957;28;20219;-68
2024/01/01 10:01:15;;;;;;;56.00;32.07;;;5.50;75.80;;;;;;5079206;28;20265;-69
2024/01/01 10:03:44;;;;;;;62.83;34.23;;;5.50;74.80;;;;;;5100526;28;20249;-69
2024/01/01 10:06:13;;;;;;;64.40;34.13;;;5.50;73.80;;;;;;5096151;28;20827;-68
2024/01/01 10:08:42;;;;;;;61.87;32.63;;;5.50;75.60;;;;;;5101197;28;20304;-68
2024/01/01 10:11:19;;;;;;;58.90;32.67;;;5.50;76.60;;;;;;5099612;28;20220;-68
2024/01/01 10:13:49;;;;;;;61.43;32.70;;;5.40;77.10;;;;;;5093669;28;20377;-69
2024/01/01 10:16:25;;;;;;;61.37;32.13;;;5.50;77.30;;;;;;5084227;28;20519;-69
2024/01/01 10:18:56;;;;;;;60.83;34.07;;;5.40;77.80;;;;;;5099874;28;20239;-69
2024/01/01 10:21:29;;;;;;;62.07;33.90;;;5.40;90.60;;;;;;5087469;27;20606;-69
2024/01/01 10:23:59;;;;;;;60.70;32.60;;;5.50;79.40;;;;;;5095758;28;20246;-69
2024/01/01 10:26:39;;;;;;;58.43;33.10;;;5.50;76.00;;;;;;5098772;27;20735;-69
2024/01/01 10:29:12;;;;;;;56.07;32.87;;;5.50;78.40;;;;;;5117663;27;20226;-69
2024/01/01 10:31:45;;;;;;;61.17;32.03;;;5.40;78.20;;;;;;5105690;27;20238;-69
2024/01/01 10:34:18;;;;;;;57.07;31.80;;;5.50;77.20;;;;;;5118177;27;20222;-69
2024/01/01 10:36:46;;;;;;;62.97;34.13;;;5.50;76.50;;;;;;5107723;27;20314;-70
2024/01/01 10:39:18;;;;;;;64.37;36.03;;;5.60;77.60;;;;;;5103717;27;20226;-69
2024/01/01 10:41:48;;;;;;;67.00;36.83;;;5.50;76.40;;;;;;5101998;28;20238;-69
2024/01/01 10:44:17;;;;;;;67.90;38.00;;;5.50;76.50;;;;;;5119458;27;20297;-69
2024/01/01 10:46:48;;;;;;;68.23;38.20;;;5.50;76.60;;;;;;5118165;27;20223;-69
2024/01/01 10:49:22;;;;;;;66.00;36.57;;;5.50;74.50;;;;;;5097289;27;20221;-69
2024/01/01 10:52:07;;;;;;;62.40;35.17;;;5.60;74.70;;;;;;5111278;27;20228;-69
2024/01/01 10:55:02;;;;;;;62.67;35.00;;;5.60;73.70;;;;;;5103294;27;20227;-69
2024/01/01 10:57:43;;;;;;;61.43;33.70;;;5.60;73.00;;;;;;5112566;27;20227;-69
2024/01/01 11:00:19;;;;;;;66.63;36.37;;;5.60;74.50;;;;;;5095708;27;20321;-69
2024/01/01 11:02:49;;;;;;;58.13;33.17;;;5.70;74.10;;;;;;5111834;27;20594;-70
2024/01/01 11:05:18;;;;;;;58.67;33.93;;;5.60;73.80;;;;;;5104870;27;20222;-69
2024/01/01 11:07:59;;;;;;;59.73;34.73;;;5.60;73.70;;;;;;5089308;28;20479;-69
2024/01/01 11:10:39;;;;;;;54.90;32.37;;;5.70;72.80;;;;;;5101748;27;20342;-69
2024/01/01 11:13:14;;;;;;;52.50;31.20;;;5.70;71.50;;;;;;5112988;27;20306;-67
2024/01/01 11:15:44;;;;;;;49.20;30.33;;;5.70;71.60;;;;;;5104440;27;20230;-67
2024/01/01 11:18:16;;;;;;;49.33;29.83;;;5.80;72.30;;;;;;5106070;27;20251;-68
2024/01/01 11:20:49;;;;;;;49.47;28.67;;;5.80;71.20;;;;;;5103154;27;20238;-69
2024/01/01 11:23:40;;;;;;;43.03;25.97;;;5.80;71.00;;;;;;5123232;27;20762;-67
2024/01/01 11:26:30;;;;;;;45.27;27.70;;;5.80;71.90;;;;;;5110797;27;20229;-69
2024/01/01 11:29:02;;;;;;;41.90;26.13;;;5.80;71.60;;;;;;5096829;27;20284;-68
2024/01/01 11:31:32;;;;;;;39.87;24.47;;;5.80;70.40;;;;;;5108573;27;20272;-68
2024/01/01 11:34:07;;;;;;;38.20;25.07;;;5.90;69.80;;;;;;5112076;27;20218;-69
2024/01/01 11:36:53;;;;;;;41.37;26.10;;;5.90;69.00;;;;;;5096587;28;20646;-68
2024/01/01 11:39:24;;;;;;;37.43;23.83;;;5.90;69.80;;;;;;5124267;28;20699;-68
2024/01/01 11:41:56;;;;;;;37.67;24.90;;;5.90;82.00;;;;;;5116630;27;20223;-69
2024/01/01 11:44:25;;;;;;;34.67;24.00;;;5.90;69.80;;;;;;5120806;28;20230;-69
2024/01/01 11:46:55;;;;;;;36.67;23.37;;;5.90;68.20;;;;;;5115868;28;20302;-69
2024/01/01 11:49:26;;;;;;;37.50;23.63;;;5.90;68.40;;;;;;5121554;28;21043;-68
2024/01/01 11:51:57;;;;;;;34.57;23.23;;;5.90;68.40;;;;;;5098736;28;20773;-70
2024/01/01 11:54:26;;;;;;;35.83;23.50;;;5.90;68.80;;;;;;5111860;27;20785;-69
2024/01/01 11:56:57;;;;;;;40.80;24.50;;;5.80;67.20;;;;;;5109129;27;20214;-69
2024/01/01 11:59:30;;;;;;;35.07;23.83;;;5.80;67.40;;;;;;5123518;27;20846;-69
2024/01/01 12:01:59;;;;;;;37.70;24.50;;;5.70;67.70;;;;;;5115367;27;20226;-68
2024/01/01 12:04:29;;;;;;;39.03;24.73;;;5.70;70.20;;;;;;5106047;27;20278;-69
2024/01/01 12:06:57;;;;;;;37.70;24.50;;;5.80;69.90;;;;;;5100060;27;20226;-69
2024/01/01 12:09:26;;;;;;;41.60;25.83;;;5.80;68.60;;;;;;5114149;27;20226;-69
2024/01/01 12:12:05;;;;;;;35.10;24.23;;;5.90;70.90;;;;;;5105037;27;20306;-69
2024/01/01 12:14:34;;;;;;;37.90;24.63;;;5.80;69.80;;;;;;5127492;27;20226;-70
2024/01/01 12:17:06;;;;;;;39.47;25.60;;;5.80;68.50;;;;;;5109370;27;20307;-69
2024/01/01 12:19:36;;;;;;;39.53;24.77;;;5.80;69.70;;;;;;5120841;27;20218;-69
2024/01/01 12:22:05;;;;;;;35.53;23.70;;;5.70;68.40;;;;;;5125782;27;20325;-68
2024/01/01 12:24:34;;;;;;;38.40;24.20;;;5.80;68.00;;;;;;5107475;27;20253;-68
2024/01/01 12:27:03;;;;;;;38.73;24.33;;;5.80;69.40;;;;;;5123886;27;20222;-69
2024/01/01 12:29:32;;;;;;;38.13;24.17;;;5.70;69.10;;;;;;5116763;27;20795;-69
2024/01/01 12:32:01;;;;;;;37.33;22.43;;;5.80;69.50;;;;;;5121419;27;20226;-68
2024/01/01 12:34:30;;;;;;;36.13;23.40;;;5.90;67.80;;;;;;5121981;27;20226;-69
2024/01/01 12:37:00;;;;;;;34.27;22.57;;;5.90;67.50;;;;;;5103280;27;20229;-67
2024/01/01 12:39:29;;;;;;;31.97;22.30;;;5.80;66.70;;;;;;5114516;27;20245;-69
2024/01/01 12:41:58;;;;;;;34.90;22.97;;;5.80;68.80;;;;;;5126269;27;20267;-67
2024/01/01 12:44:26;;;;;;;33.30;21.47;;;5.80;67.80;;;;;;5104315;27;20307;-68
2024/01/01 12:46:55;;;;;;;33.53;23.47;;;5.80;68.10;;;;;;5100554;27;20302;-69
2024/01/01 12:49:23;;;;;;;33.40;22.67;;;5.80;67.70;;;;;;5124228;27;20231;-68